sensor_id;sensor_type;location;lat;lon;timestamp;P1;durP1;ratioP1;P2;durP2;ratioP2
9117;SDS011;4594;50.994;7.126;2024-01-25T00:01:39;27.80;;;5.73;;
9117;SDS011;4594;50.994;7.126;2024-01-25T00:04:04;26.10;;;6.20;;
9117;SDS011;4594;50.994;7.126;2024-01-25T00:06:30;18.07;;;5.57;;
9117;SDS011;4594;50.994;7.126;2024-01-25T00:08:56;26.13;;;6.70;;
9117;SDS011;4594;50.994;7.126;2024-01-25T00:11:21;17.07;;;5.47;;
9117;SDS011;4594;50.994;7.126;2024-01-25T00:13:47;21.00;;;5.77;;
9117;SDS011;4594;50.994;7.126;2024-01-25T00:16:13;19.10;;;6.00;;
9117;SDS011;4594;50.994;7.126;2024-01-25T00:18:38;16.50;;;5.50;;
9117;SDS011;4594;50.994;7.126;2024-01-25T00:21:04;19.87;;;5.50;;
9117;SDS011;4594;50.994;7.126;2024-01-25T00:23:30;24.90;;;5.53;;
9117;SDS011;4594;50.994;7.126;2024-01-25T00:25:55;22.73;;;5.73;;
9117;SDS011;4594;50.994;7.126;2024-01-25T00:28:24;17.30;;;5.47;;
9117;SDS011;4594;50.994;7.126;2024-01-25T00:30:50;23.00;;;6.23;;
9117;SDS011;4594;50.994;7.126;2024-01-25T00:33:16;29.93;;;5.77;;
9117;SDS011;4594;50.994;7.126;2024-01-25T00:35:42;27.80;;;6.57;;
9117;SDS011;4594;50.994;7.126;2024-01-25T00:38:08;26.93;;;6.57;;
9117;SDS011;4594;50.994;7.126;2024-01-25T00:40:34;22.93;;;5.90;;
9117;SDS011;4594;50.994;7.126;2024-01-25T00:43:00;23.63;;;6.30;;
9117;SDS011;4594;50.994;7.126;2024-01-25T00:45:27;25.77;;;6.10;;
9117;SDS011;4594;50.994;7.126;2024-01-25T00:47:53;23.17;;;5.53;;
9117;SDS011;4594;50.994;7.126;2024-01-25T00:50:19;24.57;;;5.73;;
9117;SDS011;4594;50.994;7.126;2024-01-25T00:52:46;21.10;;;5.77;;
9117;SDS011;4594;50.994;7.126;2024-01-25T00:55:13;36.30;;;7.30;;
9117;SDS011;4594;50.994;7.126;2024-01-25T00:57:40;21.87;;;5.93;;
9117;SDS011;4594;50.994;7.126;2024-01-25T01:00:06;22.33;;;6.50;;
9117;SDS011;4594;50.994;7.126;2024-01-25T01:02:35;30.97;;;6.53;;
9117;SDS011;4594;50.994;7.126;2024-01-25T01:05:05;28.10;;;6.00;;
9117;SDS011;4594;50.994;7.126;2024-01-25T01:07:31;24.33;;;6.03;;
9117;SDS011;4594;50.994;7.126;2024-01-25T01:09:57;21.43;;;5.80;;
9117;SDS011;4594;50.994;7.126;2024-01-25T01:12:23;27.83;;;5.97;;
9117;SDS011;4594;50.994;7.126;2024-01-25T01:14:49;32.63;;;6.23;;
9117;SDS011;4594;50.994;7.126;2024-01-25T01:17:15;24.40;;;5.87;;
9117;SDS011;4594;50.994;7.126;2024-01-25T01:19:40;20.50;;;5.27;;
9117;SDS011;4594;50.994;7.126;2024-01-25T01:22:06;25.57;;;5.87;;
9117;SDS011;4594;50.994;7.126;2024-01-25T01:24:32;23.77;;;5.87;;
9117;SDS011;4594;50.994;7.126;2024-01-25T01:26:57;25.13;;;5.83;;
9117;SDS011;4594;50.994;7.126;2024-01-25T01:29:24;19.13;;;6.13;;
9117;SDS011;4594;50.994;7.126;2024-01-25T01:31:49;31.73;;;5.90;;
9117;SDS011;4594;50.994;7.126;2024-01-25T01:34:15;20.63;;;5.80;;
9117;SDS011;4594;50.994;7.126;2024-01-25T01:36:42;24.23;;;5.50;;
9117;SDS011;4594;50.994;7.126;2024-01-25T01:39:09;29.20;;;6.03;;
9117;SDS011;4594;50.994;7.126;2024-01-25T01:41:34;30.43;;;6.40;;
9117;SDS011;4594;50.994;7.126;2024-01-25T01:44:00;23.43;;;6.37;;
9117;SDS011;4594;50.994;7.126;2024-01-25T01:46:36;27.80;;;6.37;;
9117;SDS011;4594;50.994;7.126;2024-01-25T01:49:06;19.43;;;5.50;;
9117;SDS011;4594;50.994;7.126;2024-01-25T01:51:36;23.70;;;5.93;;
9117;SDS011;4594;50.994;7.126;2024-01-25T01:54:05;23.87;;;5.70;;
9117;SDS011;4594;50.994;7.126;2024-01-25T01:56:32;27.60;;;7.00;;
9117;SDS011;4594;50.994;7.126;2024-01-25T01:58:59;27.57;;;5.97;;
9117;SDS011;4594;50.994;7.126;2024-01-25T02:01:27;20.43;;;5.97;;
9117;SDS011;4594;50.994;7.126;2024-01-25T02:03:53;24.07;;;6.30;;
9117;SDS011;4594;50.994;7.126;2024-01-25T02:06:20;20.57;;;5.73;;
9117;SDS011;4594;50.994;7.126;2024-01-25T02:08:48;21.77;;;5.97;;
9117;SDS011;4594;50.994;7.126;2024-01-25T02:11:27;24.87;;;5.80;;
9117;SDS011;4594;50.994;7.126;2024-01-25T02:13:53;24.00;;;6.27;;
9117;SDS011;4594;50.994;7.126;2024-01-25T02:16:19;23.50;;;5.93;;
9117;SDS011;4594;50.994;7.126;2024-01-25T02:18:45;20.53;;;6.00;;
9117;SDS011;4594;50.994;7.126;2024-01-25T02:21:12;24.00;;;5.93;;
9117;SDS011;4594;50.994;7.126;2024-01-25T02:23:38;17.23;;;4.87;;
9117;SDS011;4594;50.994;7.126;2024-01-25T02:26:04;15.97;;;5.73;;
9117;SDS011;4594;50.994;7.126;2024-01-25T02:28:30;22.47;;;5.93;;
9117;SDS011;4594;50.994;7.126;2024-01-25T02:30:55;23.17;;;6.37;;
9117;SDS011;4594;50.994;7.126;2024-01-25T02:33:21;24.27;;;5.57;;
9117;SDS011;4594;50.994;7.126;2024-01-25T02:35:47;21.77;;;5.87;;
9117;SDS011;4594;50.994;7.126;2024-01-25T02:38:12;23.83;;;5.57;;
9117;SDS011;4594;50.994;7.126;2024-01-25T02:40:38;26.77;;;5.23;;
9117;SDS011;4594;50.994;7.126;2024-01-25T02:43:04;18.97;;;5.40;;
9117;SDS011;4594;50.994;7.126;2024-01-25T02:45:30;28.37;;;5.53;;
9117;SDS011;4594;50.994;7.126;2024-01-25T02:47:56;22.53;;;6.20;;
9117;SDS011;4594;50.994;7.126;2024-01-25T02:50:21;23.83;;;6.90;;
9117;SDS011;4594;50.994;7.126;2024-01-25T02:52:47;27.07;;;5.70;;
9117;SDS011;4594;50.994;7.126;2024-01-25T02:55:13;24.90;;;6.10;;
9117;SDS011;4594;50.994;7.126;2024-01-25T02:57:38;21.90;;;6.00;;
9117;SDS011;4594;50.994;7.126;2024-01-25T03:00:04;25.97;;;5.93;;
9117;SDS011;4594;50.994;7.126;2024-01-25T03:02:31;24.60;;;5.67;;
9117;SDS011;4594;50.994;7.126;2024-01-25T03:04:56;33.80;;;7.47;;
9117;SDS011;4594;50.994;7.126;2024-01-25T03:07:22;25.47;;;6.40;;
9117;SDS011;4594;50.994;7.126;2024-01-25T03:09:48;16.57;;;5.57;;
9117;SDS011;4594;50.994;7.126;2024-01-25T03:12:14;23.37;;;5.80;;
9117;SDS011;4594;50.994;7.126;2024-01-25T03:14:39;28.27;;;6.27;;
9117;SDS011;4594;50.994;7.126;2024-01-25T03:17:05;26.73;;;6.07;;
9117;SDS011;4594;50.994;7.126;2024-01-25T03:19:31;25.27;;;6.40;;
9117;SDS011;4594;50.994;7.126;2024-01-25T03:21:56;22.83;;;6.40;;
9117;SDS011;4594;50.994;7.126;2024-01-25T03:24:23;24.20;;;6.40;;
9117;SDS011;4594;50.994;7.126;2024-01-25T03:26:49;25.53;;;6.33;;
9117;SDS011;4594;50.994;7.126;2024-01-25T03:29:15;22.60;;;5.23;;
9117;SDS011;4594;50.994;7.126;2024-01-25T03:31:40;27.90;;;5.77;;
9117;SDS011;4594;50.994;7.126;2024-01-25T03:34:06;27.47;;;6.50;;
9117;SDS011;4594;50.994;7.126;2024-01-25T03:36:32;24.90;;;6.27;;
9117;SDS011;4594;50.994;7.126;2024-01-25T03:38:58;21.40;;;5.37;;
9117;SDS011;4594;50.994;7.126;2024-01-25T03:41:23;17.87;;;5.33;;
9117;SDS011;4594;50.994;7.126;2024-01-25T03:43:49;28.83;;;6.97;;
9117;SDS011;4594;50.994;7.126;2024-01-25T03:46:16;24.73;;;5.57;;
9117;SDS011;4594;50.994;7.126;2024-01-25T03:48:42;24.50;;;5.23;;
9117;SDS011;4594;50.994;7.126;2024-01-25T03:51:08;20.67;;;5.93;;
9117;SDS011;4594;50.994;7.126;2024-01-25T03:53:34;26.30;;;6.27;;
9117;SDS011;4594;50.994;7.126;2024-01-25T03:56:00;24.87;;;6.60;;
9117;SDS011;4594;50.994;7.126;2024-01-25T03:58:25;19.97;;;6.40;;
9117;SDS011;4594;50.994;7.126;2024-01-25T04:00:51;22.90;;;5.77;;
9117;SDS011;4594;50.994;7.126;2024-01-25T04:03:17;21.67;;;6.17;;
9117;SDS011;4594;50.994;7.126;2024-01-25T04:05:43;23.73;;;6.03;;
9117;SDS011;4594;50.994;7.126;2024-01-25T04:08:08;16.93;;;5.57;;
9117;SDS011;4594;50.994;7.126;2024-01-25T04:10:35;32.13;;;6.00;;
9117;SDS011;4594;50.994;7.126;2024-01-25T04:13:01;25.10;;;6.47;;
9117;SDS011;4594;50.994;7.126;2024-01-25T04:15:29;23.87;;;5.37;;
9117;SDS011;4594;50.994;7.126;2024-01-25T04:17:55;19.80;;;5.37;;
9117;SDS011;4594;50.994;7.126;2024-01-25T04:20:21;21.37;;;5.70;;
9117;SDS011;4594;50.994;7.126;2024-01-25T04:22:47;24.30;;;6.10;;
9117;SDS011;4594;50.994;7.126;2024-01-25T04:25:12;20.23;;;5.80;;
9117;SDS011;4594;50.994;7.126;2024-01-25T04:27:38;17.33;;;5.77;;
9117;SDS011;4594;50.994;7.126;2024-01-25T04:30:05;26.13;;;6.10;;
9117;SDS011;4594;50.994;7.126;2024-01-25T04:32:32;24.90;;;5.80;;
9117;SDS011;4594;50.994;7.126;2024-01-25T04:34:58;27.10;;;6.60;;
9117;SDS011;4594;50.994;7.126;2024-01-25T04:37:24;21.43;;;5.60;;
9117;SDS011;4594;50.994;7.126;2024-01-25T04:39:50;15.77;;;4.73;;
9117;SDS011;4594;50.994;7.126;2024-01-25T04:42:16;34.87;;;6.67;;
9117;SDS011;4594;50.994;7.126;2024-01-25T04:44:42;25.63;;;5.63;;
9117;SDS011;4594;50.994;7.126;2024-01-25T04:47:08;18.87;;;5.70;;
9117;SDS011;4594;50.994;7.126;2024-01-25T04:49:35;24.57;;;5.60;;
9117;SDS011;4594;50.994;7.126;2024-01-25T04:52:05;18.43;;;5.23;;
9117;SDS011;4594;50.994;7.126;2024-01-25T04:54:31;22.33;;;5.67;;
9117;SDS011;4594;50.994;7.126;2024-01-25T04:56:56;19.87;;;6.00;;
9117;SDS011;4594;50.994;7.126;2024-01-25T04:59:23;24.13;;;6.40;;
9117;SDS011;4594;50.994;7.126;2024-01-25T05:01:49;25.73;;;5.73;;
9117;SDS011;4594;50.994;7.126;2024-01-25T05:04:15;20.40;;;5.40;;
9117;SDS011;4594;50.994;7.126;2024-01-25T05:06:41;28.90;;;6.73;;
9117;SDS011;4594;50.994;7.126;2024-01-25T05:09:07;27.60;;;6.53;;
9117;SDS011;4594;50.994;7.126;2024-01-25T05:11:37;17.80;;;5.00;;
9117;SDS011;4594;50.994;7.126;2024-01-25T05:14:06;21.00;;;5.43;;
9117;SDS011;4594;50.994;7.126;2024-01-25T05:16:32;20.20;;;5.17;;
9117;SDS011;4594;50.994;7.126;2024-01-25T05:18:58;23.03;;;6.10;;
9117;SDS011;4594;50.994;7.126;2024-01-25T05:21:23;27.37;;;6.43;;
9117;SDS011;4594;50.994;7.126;2024-01-25T05:23:50;26.43;;;5.20;;
9117;SDS011;4594;50.994;7.126;2024-01-25T05:26:16;20.27;;;5.70;;
9117;SDS011;4594;50.994;7.126;2024-01-25T05:28:42;21.63;;;6.30;;
9117;SDS011;4594;50.994;7.126;2024-01-25T05:31:07;25.77;;;5.70;;
9117;SDS011;4594;50.994;7.126;2024-01-25T05:33:37;21.23;;;5.70;;
9117;SDS011;4594;50.994;7.126;2024-01-25T05:36:04;22.50;;;6.20;;
9117;SDS011;4594;50.994;7.126;2024-01-25T05:38:31;27.27;;;5.57;;
9117;SDS011;4594;50.994;7.126;2024-01-25T05:40:57;15.43;;;5.47;;
9117;SDS011;4594;50.994;7.126;2024-01-25T05:43:23;25.37;;;6.30;;
9117;SDS011;4594;50.994;7.126;2024-01-25T05:45:49;27.70;;;5.73;;
9117;SDS011;4594;50.994;7.126;2024-01-25T05:48:15;24.03;;;6.00;;
9117;SDS011;4594;50.994;7.126;2024-01-25T05:50:41;24.10;;;6.00;;
9117;SDS011;4594;50.994;7.126;2024-01-25T05:53:07;24.13;;;6.50;;
9117;SDS011;4594;50.994;7.126;2024-01-25T05:55:32;24.83;;;5.80;;
9117;SDS011;4594;50.994;7.126;2024-01-25T05:57:58;22.77;;;5.60;;
9117;SDS011;4594;50.994;7.126;2024-01-25T06:00:24;23.97;;;5.90;;
9117;SDS011;4594;50.994;7.126;2024-01-25T06:02:49;27.37;;;6.10;;
9117;SDS011;4594;50.994;7.126;2024-01-25T06:05:15;18.80;;;5.47;;
9117;SDS011;4594;50.994;7.126;2024-01-25T06:07:41;22.07;;;6.07;;
9117;SDS011;4594;50.994;7.126;2024-01-25T06:10:07;23.40;;;5.37;;
9117;SDS011;4594;50.994;7.126;2024-01-25T06:12:33;25.97;;;6.77;;
9117;SDS011;4594;50.994;7.126;2024-01-25T06:14:59;20.23;;;5.77;;
9117;SDS011;4594;50.994;7.126;2024-01-25T06:17:25;27.63;;;6.73;;
9117;SDS011;4594;50.994;7.126;2024-01-25T06:19:50;17.70;;;5.27;;
9117;SDS011;4594;50.994;7.126;2024-01-25T06:22:16;23.20;;;5.37;;
9117;SDS011;4594;50.994;7.126;2024-01-25T06:24:42;24.83;;;6.10;;
9117;SDS011;4594;50.994;7.126;2024-01-25T06:27:09;22.43;;;5.97;;
9117;SDS011;4594;50.994;7.126;2024-01-25T06:29:35;23.87;;;5.90;;
9117;SDS011;4594;50.994;7.126;2024-01-25T06:32:01;23.30;;;6.30;;
9117;SDS011;4594;50.994;7.126;2024-01-25T06:34:26;23.03;;;6.07;;
9117;SDS011;4594;50.994;7.126;2024-01-25T06:36:52;15.20;;;5.03;;
9117;SDS011;4594;50.994;7.126;2024-01-25T06:39:17;16.63;;;5.50;;
9117;SDS011;4594;50.994;7.126;2024-01-25T06:41:43;19.53;;;5.47;;
9117;SDS011;4594;50.994;7.126;2024-01-25T06:44:09;17.93;;;4.87;;
9117;SDS011;4594;50.994;7.126;2024-01-25T06:46:34;30.23;;;6.83;;
9117;SDS011;4594;50.994;7.126;2024-01-25T06:49:00;22.23;;;5.73;;
9117;SDS011;4594;50.994;7.126;2024-01-25T06:51:26;21.23;;;5.23;;
9117;SDS011;4594;50.994;7.126;2024-01-25T06:53:52;17.13;;;5.83;;
9117;SDS011;4594;50.994;7.126;2024-01-25T06:56:17;18.83;;;5.83;;
9117;SDS011;4594;50.994;7.126;2024-01-25T06:58:43;18.17;;;5.87;;
9117;SDS011;4594;50.994;7.126;2024-01-25T07:01:09;14.83;;;5.13;;
9117;SDS011;4594;50.994;7.126;2024-01-25T07:03:34;12.73;;;5.37;;
9117;SDS011;4594;50.994;7.126;2024-01-25T07:06:00;20.70;;;6.20;;
9117;SDS011;4594;50.994;7.126;2024-01-25T07:08:27;17.07;;;5.37;;
9117;SDS011;4594;50.994;7.126;2024-01-25T07:10:52;17.17;;;5.37;;
9117;SDS011;4594;50.994;7.126;2024-01-25T07:13:18;19.37;;;5.80;;
9117;SDS011;4594;50.994;7.126;2024-01-25T07:15:43;14.67;;;5.40;;
9117;SDS011;4594;50.994;7.126;2024-01-25T07:18:10;20.13;;;6.53;;
9117;SDS011;4594;50.994;7.126;2024-01-25T07:20:36;19.07;;;6.13;;
9117;SDS011;4594;50.994;7.126;2024-01-25T07:23:01;22.20;;;5.47;;
9117;SDS011;4594;50.994;7.126;2024-01-25T07:25:27;19.17;;;6.60;;
9117;SDS011;4594;50.994;7.126;2024-01-25T07:27:53;24.73;;;6.37;;
9117;SDS011;4594;50.994;7.126;2024-01-25T07:30:18;15.70;;;5.57;;
9117;SDS011;4594;50.994;7.126;2024-01-25T07:32:44;22.20;;;5.93;;
9117;SDS011;4594;50.994;7.126;2024-01-25T07:35:11;19.17;;;6.67;;
9117;SDS011;4594;50.994;7.126;2024-01-25T07:37:38;17.23;;;5.50;;
9117;SDS011;4594;50.994;7.126;2024-01-25T07:40:05;20.70;;;6.30;;
9117;SDS011;4594;50.994;7.126;2024-01-25T07:42:33;19.20;;;5.93;;
9117;SDS011;4594;50.994;7.126;2024-01-25T07:44:59;25.23;;;6.00;;
9117;SDS011;4594;50.994;7.126;2024-01-25T07:47:24;19.10;;;6.20;;
9117;SDS011;4594;50.994;7.126;2024-01-25T07:49:50;13.90;;;5.43;;
9117;SDS011;4594;50.994;7.126;2024-01-25T07:52:16;15.50;;;5.20;;
9117;SDS011;4594;50.994;7.126;2024-01-25T07:54:42;14.87;;;5.60;;
9117;SDS011;4594;50.994;7.126;2024-01-25T07:57:09;17.03;;;6.40;;
9117;SDS011;4594;50.994;7.126;2024-01-25T07:59:35;20.13;;;5.30;;
9117;SDS011;4594;50.994;7.126;2024-01-25T08:02:01;17.50;;;5.07;;
9117;SDS011;4594;50.994;7.126;2024-01-25T08:04:27;18.80;;;5.50;;
9117;SDS011;4594;50.994;7.126;2024-01-25T08:06:52;18.77;;;5.53;;
9117;SDS011;4594;50.994;7.126;2024-01-25T08:09:18;15.73;;;5.20;;
9117;SDS011;4594;50.994;7.126;2024-01-25T08:11:44;18.83;;;6.10;;
9117;SDS011;4594;50.994;7.126;2024-01-25T08:14:10;18.27;;;5.53;;
9117;SDS011;4594;50.994;7.126;2024-01-25T08:16:36;15.80;;;5.50;;
9117;SDS011;4594;50.994;7.126;2024-01-25T08:19:02;20.53;;;6.10;;
9117;SDS011;4594;50.994;7.126;2024-01-25T08:21:29;19.63;;;5.53;;
9117;SDS011;4594;50.994;7.126;2024-01-25T08:23:55;24.50;;;6.23;;
9117;SDS011;4594;50.994;7.126;2024-01-25T08:26:21;19.43;;;6.70;;
9117;SDS011;4594;50.994;7.126;2024-01-25T08:28:46;22.50;;;7.27;;
9117;SDS011;4594;50.994;7.126;2024-01-25T08:31:12;17.10;;;6.27;;
9117;SDS011;4594;50.994;7.126;2024-01-25T08:33:39;24.53;;;6.43;;
9117;SDS011;4594;50.994;7.126;2024-01-25T08:36:10;22.63;;;6.60;;
9117;SDS011;4594;50.994;7.126;2024-01-25T08:38:36;32.97;;;7.80;;
9117;SDS011;4594;50.994;7.126;2024-01-25T08:41:01;25.87;;;6.43;;
9117;SDS011;4594;50.994;7.126;2024-01-25T08:43:27;28.10;;;7.83;;
9117;SDS011;4594;50.994;7.126;2024-01-25T08:45:53;24.67;;;7.67;;
9117;SDS011;4594;50.994;7.126;2024-01-25T08:48:19;37.27;;;9.80;;
9117;SDS011;4594;50.994;7.126;2024-01-25T08:50:45;33.27;;;8.77;;
9117;SDS011;4594;50.994;7.126;2024-01-25T08:53:11;29.97;;;9.93;;
9117;SDS011;4594;50.994;7.126;2024-01-25T08:55:37;29.93;;;9.93;;
9117;SDS011;4594;50.994;7.126;2024-01-25T08:58:03;34.60;;;10.20;;
9117;SDS011;4594;50.994;7.126;2024-01-25T09:00:29;35.27;;;10.33;;
9117;SDS011;4594;50.994;7.126;2024-01-25T09:02:55;36.03;;;9.80;;
9117;SDS011;4594;50.994;7.126;2024-01-25T09:05:20;29.10;;;10.40;;
9117;SDS011;4594;50.994;7.126;2024-01-25T09:07:47;31.80;;;9.13;;
9117;SDS011;4594;50.994;7.126;2024-01-25T09:10:12;35.63;;;9.87;;
9117;SDS011;4594;50.994;7.126;2024-01-25T09:12:39;25.97;;;7.80;;
9117;SDS011;4594;50.994;7.126;2024-01-25T09:15:05;23.87;;;8.63;;
9117;SDS011;4594;50.994;7.126;2024-01-25T09:17:33;26.47;;;8.83;;
9117;SDS011;4594;50.994;7.126;2024-01-25T09:19:59;33.03;;;9.27;;
9117;SDS011;4594;50.994;7.126;2024-01-25T09:22:25;33.67;;;8.73;;
9117;SDS011;4594;50.994;7.126;2024-01-25T09:24:50;28.47;;;8.83;;
9117;SDS011;4594;50.994;7.126;2024-01-25T09:27:16;33.93;;;9.47;;
9117;SDS011;4594;50.994;7.126;2024-01-25T09:29:42;27.40;;;8.47;;
9117;SDS011;4594;50.994;7.126;2024-01-25T09:32:08;30.83;;;9.30;;
9117;SDS011;4594;50.994;7.126;2024-01-25T09:34:35;30.03;;;8.63;;
9117;SDS011;4594;50.994;7.126;2024-01-25T09:37:02;37.03;;;8.77;;
9117;SDS011;4594;50.994;7.126;2024-01-25T09:39:31;38.30;;;8.93;;
9117;SDS011;4594;50.994;7.126;2024-01-25T09:41:58;26.53;;;8.70;;
9117;SDS011;4594;50.994;7.126;2024-01-25T09:44:23;24.13;;;7.13;;
9117;SDS011;4594;50.994;7.126;2024-01-25T09:46:50;27.80;;;8.07;;
9117;SDS011;4594;50.994;7.126;2024-01-25T09:49:16;38.07;;;8.07;;
9117;SDS011;4594;50.994;7.126;2024-01-25T09:51:43;31.77;;;9.37;;
9117;SDS011;4594;50.994;7.126;2024-01-25T09:54:09;36.60;;;9.60;;
9117;SDS011;4594;50.994;7.126;2024-01-25T09:56:35;29.50;;;8.83;;
9117;SDS011;4594;50.994;7.126;2024-01-25T09:59:02;34.73;;;9.73;;
9117;SDS011;4594;50.994;7.126;2024-01-25T10:01:29;41.47;;;9.03;;
9117;SDS011;4594;50.994;7.126;2024-01-25T10:03:55;29.97;;;8.73;;
9117;SDS011;4594;50.994;7.126;2024-01-25T10:06:21;30.83;;;9.50;;
9117;SDS011;4594;50.994;7.126;2024-01-25T10:08:47;30.17;;;9.30;;
9117;SDS011;4594;50.994;7.126;2024-01-25T10:11:14;35.33;;;10.10;;
9117;SDS011;4594;50.994;7.126;2024-01-25T10:13:40;26.73;;;9.27;;
9117;SDS011;4594;50.994;7.126;2024-01-25T10:16:11;34.47;;;9.43;;
9117;SDS011;4594;50.994;7.126;2024-01-25T10:18:39;26.90;;;9.00;;
9117;SDS011;4594;50.994;7.126;2024-01-25T10:21:08;21.70;;;9.50;;
9117;SDS011;4594;50.994;7.126;2024-01-25T10:23:39;32.10;;;9.73;;
9117;SDS011;4594;50.994;7.126;2024-01-25T10:26:05;37.20;;;9.53;;
9117;SDS011;4594;50.994;7.126;2024-01-25T10:28:33;31.03;;;9.33;;
9117;SDS011;4594;50.994;7.126;2024-01-25T10:30:59;37.43;;;9.03;;
9117;SDS011;4594;50.994;7.126;2024-01-25T10:33:29;25.40;;;8.77;;
9117;SDS011;4594;50.994;7.126;2024-01-25T10:35:56;23.80;;;9.13;;
9117;SDS011;4594;50.994;7.126;2024-01-25T10:38:32;26.43;;;8.67;;
9117;SDS011;4594;50.994;7.126;2024-01-25T10:41:01;26.50;;;9.50;;
9117;SDS011;4594;50.994;7.126;2024-01-25T10:43:29;30.50;;;10.17;;
9117;SDS011;4594;50.994;7.126;2024-01-25T10:45:56;31.63;;;9.53;;
9117;SDS011;4594;50.994;7.126;2024-01-25T10:48:26;33.20;;;10.33;;
9117;SDS011;4594;50.994;7.126;2024-01-25T10:50:57;30.13;;;9.13;;
9117;SDS011;4594;50.994;7.126;2024-01-25T10:53:27;31.83;;;10.87;;
9117;SDS011;4594;50.994;7.126;2024-01-25T10:55:59;26.67;;;9.30;;
9117;SDS011;4594;50.994;7.126;2024-01-25T10:58:33;34.87;;;9.43;;
9117;SDS011;4594;50.994;7.126;2024-01-25T11:01:00;30.70;;;9.57;;
9117;SDS011;4594;50.994;7.126;2024-01-25T11:03:31;29.80;;;9.87;;
9117;SDS011;4594;50.994;7.126;2024-01-25T11:06:06;35.27;;;11.07;;
9117;SDS011;4594;50.994;7.126;2024-01-25T11:08:34;28.50;;;10.30;;
9117;SDS011;4594;50.994;7.126;2024-01-25T11:11:05;28.50;;;9.80;;
9117;SDS011;4594;50.994;7.126;2024-01-25T11:13:36;25.57;;;9.23;;
9117;SDS011;4594;50.994;7.126;2024-01-25T11:16:15;27.73;;;9.80;;
9117;SDS011;4594;50.994;7.126;2024-01-25T11:18:57;36.13;;;10.07;;
9117;SDS011;4594;50.994;7.126;2024-01-25T11:21:42;22.67;;;9.43;;
9117;SDS011;4594;50.994;7.126;2024-01-25T11:26:44;37.43;;;12.17;;
9117;SDS011;4594;50.994;7.126;2024-01-25T11:29:15;31.63;;;10.30;;
9117;SDS011;4594;50.994;7.126;2024-01-25T11:31:42;36.37;;;10.57;;
9117;SDS011;4594;50.994;7.126;2024-01-25T11:34:13;33.00;;;10.53;;
9117;SDS011;4594;50.994;7.126;2024-01-25T11:36:40;34.30;;;11.20;;
9117;SDS011;4594;50.994;7.126;2024-01-25T11:39:10;33.13;;;10.67;;
9117;SDS011;4594;50.994;7.126;2024-01-25T11:41:37;26.63;;;10.93;;
9117;SDS011;4594;50.994;7.126;2024-01-25T11:44:03;34.10;;;10.77;;
9117;SDS011;4594;50.994;7.126;2024-01-25T11:46:32;28.07;;;9.37;;
9117;SDS011;4594;50.994;7.126;2024-01-25T11:48:58;29.00;;;8.87;;
9117;SDS011;4594;50.994;7.126;2024-01-25T11:51:24;26.03;;;9.37;;
9117;SDS011;4594;50.994;7.126;2024-01-25T11:53:50;27.20;;;7.50;;
9117;SDS011;4594;50.994;7.126;2024-01-25T11:56:26;28.67;;;9.77;;
9117;SDS011;4594;50.994;7.126;2024-01-25T11:58:56;26.13;;;8.87;;
9117;SDS011;4594;50.994;7.126;2024-01-25T12:01:23;30.83;;;8.17;;
9117;SDS011;4594;50.994;7.126;2024-01-25T12:03:50;29.23;;;8.33;;
9117;SDS011;4594;50.994;7.126;2024-01-25T12:06:16;24.77;;;8.43;;
9117;SDS011;4594;50.994;7.126;2024-01-25T12:08:43;23.80;;;7.33;;
9117;SDS011;4594;50.994;7.126;2024-01-25T12:11:11;22.53;;;6.63;;
9117;SDS011;4594;50.994;7.126;2024-01-25T12:13:40;18.43;;;6.43;;
9117;SDS011;4594;50.994;7.126;2024-01-25T12:16:11;27.73;;;7.30;;
9117;SDS011;4594;50.994;7.126;2024-01-25T12:18:37;20.03;;;7.60;;
9117;SDS011;4594;50.994;7.126;2024-01-25T12:21:06;23.93;;;7.77;;
9117;SDS011;4594;50.994;7.126;2024-01-25T12:26:06;24.23;;;7.63;;
9117;SDS011;4594;50.994;7.126;2024-01-25T12:28:34;23.00;;;7.17;;
9117;SDS011;4594;50.994;7.126;2024-01-25T12:31:00;22.87;;;6.83;;
9117;SDS011;4594;50.994;7.126;2024-01-25T12:33:28;21.20;;;6.17;;
9117;SDS011;4594;50.994;7.126;2024-01-25T12:35:55;22.27;;;6.13;;
9117;SDS011;4594;50.994;7.126;2024-01-25T12:38:22;17.83;;;5.90;;
9117;SDS011;4594;50.994;7.126;2024-01-25T12:40:49;15.83;;;5.67;;
9117;SDS011;4594;50.994;7.126;2024-01-25T12:43:16;18.33;;;6.27;;
9117;SDS011;4594;50.994;7.126;2024-01-25T12:45:42;17.50;;;5.43;;
9117;SDS011;4594;50.994;7.126;2024-01-25T12:48:08;20.03;;;5.97;;
9117;SDS011;4594;50.994;7.126;2024-01-25T12:50:37;22.23;;;6.80;;
9117;SDS011;4594;50.994;7.126;2024-01-25T12:53:03;25.17;;;6.17;;
9117;SDS011;4594;50.994;7.126;2024-01-25T12:55:31;21.83;;;6.07;;
9117;SDS011;4594;50.994;7.126;2024-01-25T12:57:58;20.17;;;6.23;;
9117;SDS011;4594;50.994;7.126;2024-01-25T13:00:24;17.00;;;5.60;;
9117;SDS011;4594;50.994;7.126;2024-01-25T13:02:51;16.97;;;6.03;;
9117;SDS011;4594;50.994;7.126;2024-01-25T13:05:19;20.83;;;6.53;;
9117;SDS011;4594;50.994;7.126;2024-01-25T13:07:45;22.73;;;6.80;;
9117;SDS011;4594;50.994;7.126;2024-01-25T13:10:11;22.13;;;5.80;;
9117;SDS011;4594;50.994;7.126;2024-01-25T13:12:37;17.63;;;5.63;;
9117;SDS011;4594;50.994;7.126;2024-01-25T13:15:04;17.03;;;5.30;;
9117;SDS011;4594;50.994;7.126;2024-01-25T13:17:31;18.67;;;5.10;;
9117;SDS011;4594;50.994;7.126;2024-01-25T13:20:00;14.73;;;5.70;;
9117;SDS011;4594;50.994;7.126;2024-01-25T13:22:26;15.53;;;4.93;;
9117;SDS011;4594;50.994;7.126;2024-01-25T13:24:52;16.50;;;5.47;;
9117;SDS011;4594;50.994;7.126;2024-01-25T13:27:18;17.73;;;5.80;;
9117;SDS011;4594;50.994;7.126;2024-01-25T13:29:43;22.77;;;6.70;;
9117;SDS011;4594;50.994;7.126;2024-01-25T13:32:09;15.97;;;5.63;;
9117;SDS011;4594;50.994;7.126;2024-01-25T13:34:35;21.53;;;6.40;;
9117;SDS011;4594;50.994;7.126;2024-01-25T13:37:01;25.10;;;7.83;;
9117;SDS011;4594;50.994;7.126;2024-01-25T13:39:27;22.87;;;7.33;;
9117;SDS011;4594;50.994;7.126;2024-01-25T13:41:53;28.63;;;6.50;;
9117;SDS011;4594;50.994;7.126;2024-01-25T13:44:21;24.73;;;6.17;;
9117;SDS011;4594;50.994;7.126;2024-01-25T13:46:47;15.93;;;5.17;;
9117;SDS011;4594;50.994;7.126;2024-01-25T13:49:13;17.10;;;5.73;;
9117;SDS011;4594;50.994;7.126;2024-01-25T13:51:38;23.90;;;5.20;;
9117;SDS011;4594;50.994;7.126;2024-01-25T13:54:04;18.40;;;5.70;;
9117;SDS011;4594;50.994;7.126;2024-01-25T13:56:30;18.03;;;4.93;;
9117;SDS011;4594;50.994;7.126;2024-01-25T13:58:55;19.83;;;5.60;;
9117;SDS011;4594;50.994;7.126;2024-01-25T14:01:21;15.97;;;6.13;;
9117;SDS011;4594;50.994;7.126;2024-01-25T14:03:47;19.37;;;6.00;;
9117;SDS011;4594;50.994;7.126;2024-01-25T14:06:13;22.83;;;5.77;;
9117;SDS011;4594;50.994;7.126;2024-01-25T14:08:38;19.27;;;5.73;;
9117;SDS011;4594;50.994;7.126;2024-01-25T14:11:04;16.57;;;5.43;;
9117;SDS011;4594;50.994;7.126;2024-01-25T14:13:31;19.00;;;5.70;;
9117;SDS011;4594;50.994;7.126;2024-01-25T14:15:57;17.63;;;5.07;;
9117;SDS011;4594;50.994;7.126;2024-01-25T14:18:24;18.63;;;5.10;;
9117;SDS011;4594;50.994;7.126;2024-01-25T14:20:52;19.40;;;6.03;;
9117;SDS011;4594;50.994;7.126;2024-01-25T14:23:18;16.97;;;5.30;;
9117;SDS011;4594;50.994;7.126;2024-01-25T14:25:43;20.87;;;5.80;;
9117;SDS011;4594;50.994;7.126;2024-01-25T14:28:10;18.67;;;5.30;;
9117;SDS011;4594;50.994;7.126;2024-01-25T14:30:36;19.07;;;5.83;;
9117;SDS011;4594;50.994;7.126;2024-01-25T14:33:02;23.90;;;5.93;;
9117;SDS011;4594;50.994;7.126;2024-01-25T14:35:28;19.63;;;6.87;;
9117;SDS011;4594;50.994;7.126;2024-01-25T14:37:55;20.10;;;6.60;;
9117;SDS011;4594;50.994;7.126;2024-01-25T14:40:22;22.60;;;6.23;;
9117;SDS011;4594;50.994;7.126;2024-01-25T14:42:48;21.00;;;6.53;;
9117;SDS011;4594;50.994;7.126;2024-01-25T14:45:14;15.80;;;5.67;;
9117;SDS011;4594;50.994;7.126;2024-01-25T14:47:40;18.13;;;5.63;;
9117;SDS011;4594;50.994;7.126;2024-01-25T14:50:06;13.10;;;4.47;;
9117;SDS011;4594;50.994;7.126;2024-01-25T14:52:32;14.30;;;4.87;;
9117;SDS011;4594;50.994;7.126;2024-01-25T14:54:59;13.30;;;4.60;;
9117;SDS011;4594;50.994;7.126;2024-01-25T14:57:26;16.87;;;5.17;;
9117;SDS011;4594;50.994;7.126;2024-01-25T14:59:52;14.50;;;5.17;;
9117;SDS011;4594;50.994;7.126;2024-01-25T15:02:17;19.47;;;5.30;;